createdAt,value
2022-12-19T00:02:48.302Z,7.03
2022-12-19T00:05:57.238Z,6.42
2022-12-19T00:09:08.399Z,7.47
2022-12-19T00:12:19.267Z,6.72
2022-12-19T00:15:25.385Z,7.50
2022-12-19T00:18:31.727Z,6.95
2022-12-19T00:21:39.635Z,7.80
2022-12-19T00:24:47.670Z,6.92
2022-12-19T00:27:54.727Z,8.98
2022-12-19T00:31:04.411Z,8.20
2022-12-19T00:34:09.419Z,7.62
2022-12-19T00:37:15.786Z,8.05
2022-12-19T00:40:22.756Z,6.60
2022-12-19T00:43:32.036Z,6.95
2022-12-19T00:46:38.913Z,6.95
2022-12-19T00:49:46.186Z,6.60
2022-12-19T00:52:54.246Z,6.90
2022-12-19T00:56:00.472Z,6.58
2022-12-19T00:59:08.801Z,6.83
2022-12-19T01:02:14.200Z,7.87
2022-12-19T01:05:21.913Z,8.05
2022-12-19T01:08:29.227Z,7.92
2022-12-19T01:11:55.535Z,7.75
2022-12-19T01:15:04.547Z,8.40
2022-12-19T01:18:09.287Z,8.08
2022-12-19T01:21:20.305Z,8.65
2022-12-19T01:24:26.621Z,7.92
2022-12-19T01:27:32.310Z,7.37
2022-12-19T01:30:37.545Z,6.75
2022-12-19T01:33:44.569Z,6.97
2022-12-19T01:36:51.857Z,7.08
2022-12-19T01:39:58.757Z,6.72
2022-12-19T01:43:05.525Z,7.40
2022-12-19T01:46:18.831Z,8.20
2022-12-19T01:49:49.890Z,7.78
2022-12-19T01:52:56.990Z,6.80
2022-12-19T01:56:10.500Z,7.65
2022-12-19T02:01:58.423Z,6.95
2022-12-19T02:04:52.455Z,6.67
2022-12-19T02:07:57.469Z,8.23
2022-12-19T02:11:02.881Z,7.28
2022-12-19T02:14:08.502Z,7.42
2022-12-19T02:17:29.097Z,8.03
2022-12-19T02:21:12.485Z,8.05
2022-12-19T02:25:13.023Z,7.75
2022-12-19T02:28:48.464Z,8.30
2022-12-19T02:32:08.415Z,8.23
2022-12-19T02:35:39.330Z,8.23
2022-12-19T02:39:03.385Z,7.97
2022-12-19T02:42:13.956Z,8.40
2022-12-19T02:45:28.342Z,9.28
2022-12-19T02:48:28.900Z,7.40
2022-12-19T02:51:35.950Z,8.18
2022-12-19T02:54:44.989Z,7.85
2022-12-19T02:58:05.893Z,7.95
2022-12-19T03:01:16.045Z,8.40
2022-12-19T03:04:47.996Z,9.35
2022-12-19T03:08:23.497Z,7.73
2022-12-19T03:11:29.661Z,8.38
2022-12-19T03:14:38.010Z,9.30
2022-12-19T03:17:43.068Z,8.75
2022-12-19T03:21:03.811Z,9.63
2022-12-19T03:24:09.701Z,8.55
2022-12-19T03:27:35.550Z,8.40
2022-12-19T03:30:42.587Z,8.35
2022-12-19T03:33:49.161Z,8.35
2022-12-19T03:36:58.113Z,7.78
2022-12-19T03:40:09.647Z,8.08
2022-12-19T03:43:18.932Z,9.00
2022-12-19T03:46:33.012Z,8.28
2022-12-19T03:49:39.400Z,7.90
2022-12-19T03:53:07.702Z,8.35
2022-12-19T03:56:30.499Z,9.03
2022-12-19T03:59:49.955Z,8.45
2022-12-19T04:02:59.921Z,8.73
2022-12-19T04:06:05.041Z,8.25
2022-12-19T04:09:12.214Z,8.03
2022-12-19T04:12:23.469Z,7.45
2022-12-19T04:15:29.922Z,7.95
2022-12-19T04:18:34.669Z,7.58
2022-12-19T04:21:48.427Z,7.78
2022-12-19T04:24:56.718Z,9.00
2022-12-19T04:28:06.838Z,8.10
2022-12-19T04:31:13.239Z,7.83
2022-12-19T04:34:18.204Z,8.78
2022-12-19T04:37:25.165Z,8.63
2022-12-19T04:40:35.431Z,10.03
2022-12-19T04:43:40.405Z,10.48
2022-12-19T04:46:46.506Z,9.65
2022-12-19T04:49:52.031Z,16.67
2022-12-19T04:52:57.805Z,14.93
2022-12-19T04:56:02.682Z,27.25
2022-12-19T04:59:13.717Z,18.60
2022-12-19T05:02:21.872Z,12.82
2022-12-19T05:05:29.195Z,13.22
2022-12-19T05:08:36.058Z,12.73
2022-12-19T05:11:41.989Z,14.00
2022-12-19T05:14:47.685Z,13.13
2022-12-19T05:17:53.848Z,12.68
2022-12-19T05:21:02.865Z,20.17
2022-12-19T05:24:08.591Z,13.30
2022-12-19T05:27:13.393Z,10.18
2022-12-19T05:30:20.096Z,11.08
2022-12-19T05:33:28.390Z,10.60
2022-12-19T05:36:34.297Z,10.75
2022-12-19T05:39:43.954Z,10.35
2022-12-19T05:42:55.431Z,10.28
2022-12-19T05:46:02.392Z,10.68
2022-12-19T05:49:07.777Z,8.35
2022-12-19T05:52:13.651Z,10.08
2022-12-19T05:55:18.299Z,9.58
2022-12-19T05:58:26.559Z,10.63
2022-12-19T06:01:38.020Z,10.45
2022-12-19T06:04:45.310Z,9.67
2022-12-19T06:07:51.519Z,10.63
2022-12-19T06:10:56.799Z,9.43
2022-12-19T06:14:03.420Z,9.90
2022-12-19T06:17:08.586Z,10.13
2022-12-19T06:20:33.462Z,9.95
2022-12-19T06:23:46.336Z,9.55
2022-12-19T06:26:58.006Z,10.50
2022-12-19T06:30:03.335Z,9.85
2022-12-19T06:33:08.164Z,10.65
2022-12-19T06:36:19.700Z,10.08
2022-12-19T06:39:29.512Z,10.28
2022-12-19T06:42:34.891Z,9.98
2022-12-19T06:45:43.419Z,10.98
2022-12-19T06:48:50.415Z,9.23
2022-12-19T06:51:56.862Z,9.98
2022-12-19T06:55:04.736Z,9.70
2022-12-19T06:58:10.300Z,10.25
2022-12-19T07:01:17.615Z,9.45
2022-12-19T07:04:24.319Z,9.38
2022-12-19T07:07:31.903Z,9.85
2022-12-19T07:10:41.213Z,10.85
2022-12-19T07:13:49.646Z,10.23
2022-12-19T07:16:56.787Z,9.83
2022-12-19T07:20:19.633Z,16.10
2022-12-19T07:23:27.952Z,13.83
2022-12-19T07:26:33.952Z,17.55
2022-12-19T07:29:39.007Z,34.80
2022-12-19T07:32:46.989Z,18.25
2022-12-19T07:35:54.047Z,19.67
2022-12-19T07:38:59.567Z,9.70
2022-12-19T07:42:09.173Z,9.25
2022-12-19T07:45:16.312Z,9.50
2022-12-19T07:48:21.665Z,13.05
2022-12-19T07:51:27.883Z,13.60
2022-12-19T07:54:34.934Z,9.48
2022-12-19T07:57:40.813Z,9.53
2022-12-19T08:00:48.746Z,9.05
2022-12-19T08:03:54.549Z,8.78
2022-12-19T08:07:03.267Z,11.68
2022-12-19T08:10:15.392Z,9.97
2022-12-19T08:13:22.443Z,8.95
2022-12-19T08:16:29.170Z,9.40
2022-12-19T08:19:35.546Z,9.30
2022-12-19T08:22:45.360Z,10.05
2022-12-19T08:26:01.905Z,7.58
2022-12-19T08:29:09.691Z,9.28
2022-12-19T08:32:20.779Z,8.23
2022-12-19T08:35:25.389Z,8.10
2022-12-19T08:38:32.384Z,7.62
2022-12-19T08:41:38.964Z,7.75
2022-12-19T08:44:44.753Z,7.55
2022-12-19T08:47:53.052Z,8.33
2022-12-19T08:51:12.437Z,9.33
2022-12-19T08:54:19.959Z,7.70
2022-12-19T08:57:27.701Z,8.50
2022-12-19T09:00:37.572Z,8.58
2022-12-19T09:04:15.516Z,9.05
2022-12-19T09:06:51.846Z,8.10
2022-12-19T09:09:57.314Z,7.65
2022-12-19T09:13:03.036Z,12.10
2022-12-19T09:16:22.374Z,7.85
2022-12-19T09:19:27.715Z,7.37
2022-12-19T09:22:33.317Z,6.97
2022-12-19T09:25:38.191Z,8.20
2022-12-19T09:28:44.173Z,8.48
2022-12-19T09:31:55.633Z,7.28
2022-12-19T09:34:58.040Z,7.28
2022-12-19T09:38:02.681Z,7.55
2022-12-19T09:41:36.482Z,8.15
2022-12-19T09:45:18.128Z,7.58
2022-12-19T09:48:25.282Z,7.87
2022-12-19T09:51:47.564Z,10.70
2022-12-19T09:54:59.053Z,11.83
2022-12-19T09:58:21.010Z,9.93
2022-12-19T10:01:53.124Z,9.58
2022-12-19T10:06:25.895Z,6.37
2022-12-19T10:08:45.471Z,6.03
2022-12-19T10:12:45.532Z,5.95
2022-12-19T10:16:00.534Z,6.83
2022-12-19T10:19:16.450Z,5.90
2022-12-19T10:22:43.968Z,6.00
2022-12-19T10:26:08.168Z,6.72
2022-12-19T10:29:36.209Z,7.08
2022-12-19T10:37:25.550Z,8.03
2022-12-19T10:40:28.527Z,8.20
2022-12-19T10:43:51.155Z,11.10
2022-12-19T10:47:00.742Z,9.43
2022-12-19T10:50:09.914Z,6.53
2022-12-19T10:53:23.473Z,5.90
2022-12-19T10:56:38.801Z,7.00
2022-12-19T10:59:45.697Z,14.68
2022-12-19T11:02:56.395Z,8.90
2022-12-19T11:06:06.632Z,9.75
2022-12-19T11:09:36.295Z,7.92
2022-12-19T11:16:42.098Z,8.00
2022-12-19T11:23:15.531Z,6.78
2022-12-19T11:25:56.666Z,7.08
2022-12-19T11:29:46.486Z,6.60
2022-12-19T11:30:42.999Z,6.78
2022-12-19T11:32:53.561Z,6.73
2022-12-19T11:36:13.819Z,6.40
2022-12-19T11:39:20.480Z,6.05
2022-12-19T11:43:10.958Z,7.30
2022-12-19T11:46:34.385Z,6.95
2022-12-19T11:49:52.163Z,6.58
2022-12-19T11:53:26.120Z,15.38
2022-12-19T11:56:34.567Z,9.80
2022-12-19T11:59:49.501Z,9.10
2022-12-19T12:03:16.727Z,7.92
2022-12-19T12:06:31.602Z,7.40
2022-12-19T12:14:27.553Z,6.67
2022-12-19T12:16:21.055Z,7.35
2022-12-19T12:31:00.175Z,9.00
2022-12-19T12:31:05.268Z,7.97
2022-12-19T12:31:07.828Z,8.45
2022-12-19T12:32:02.268Z,7.80
2022-12-19T12:36:53.029Z,7.65
2022-12-19T12:38:46.225Z,6.72
2022-12-19T12:42:14.371Z,7.65
2022-12-19T12:45:30.980Z,7.83
2022-12-19T12:49:03.193Z,9.58
2022-12-19T12:52:04.177Z,6.40
2022-12-19T12:55:09.856Z,6.67
2022-12-19T12:58:20.860Z,11.08
2022-12-19T13:01:41.119Z,7.80
2022-12-19T13:04:53.994Z,7.87
2022-12-19T13:08:07.873Z,7.20
2022-12-19T13:11:52.172Z,7.28
2022-12-19T13:15:02.744Z,7.25
2022-12-19T13:18:13.190Z,8.10
2022-12-19T13:21:20.700Z,10.55
2022-12-19T13:24:33.497Z,8.55
2022-12-19T13:27:48.973Z,12.70
2022-12-19T13:31:21.088Z,9.68
2022-12-19T13:34:33.030Z,8.90
2022-12-19T13:39:59.033Z,7.90
2022-12-19T13:41:19.484Z,7.55
2022-12-19T13:44:26.388Z,7.12
2022-12-19T13:47:32.635Z,7.65
2022-12-19T13:50:51.175Z,9.68
2022-12-19T13:53:59.854Z,11.03
2022-12-19T13:57:09.672Z,7.45
2022-12-19T14:00:16.500Z,10.78
2022-12-19T14:03:31.780Z,13.32
2022-12-19T14:06:44.653Z,10.75
2022-12-19T14:11:28.817Z,12.85
2022-12-19T14:13:56.768Z,10.65
2022-12-19T14:16:43.552Z,11.75
2022-12-19T14:19:42.430Z,13.13
2022-12-19T14:23:09.070Z,12.88
2022-12-19T14:30:28.525Z,8.53
2022-12-19T14:33:46.642Z,7.15
2022-12-19T14:36:21.633Z,14.73
2022-12-19T14:39:32.061Z,13.22
2022-12-19T14:43:56.613Z,13.05
2022-12-19T14:52:51.900Z,10.13
2022-12-19T14:53:34.303Z,10.82
2022-12-19T14:54:50.557Z,14.63
2022-12-19T14:56:54.200Z,11.10
2022-12-19T14:59:52.534Z,14.43
2022-12-19T15:02:59.061Z,10.05
2022-12-19T15:07:05.202Z,9.15
2022-12-19T15:11:03.268Z,10.68
2022-12-19T15:14:48.023Z,12.53
2022-12-19T15:16:08.314Z,12.40
2022-12-19T15:19:15.604Z,16.10
2022-12-19T15:22:21.202Z,16.10
2022-12-19T15:28:47.219Z,13.75
2022-12-19T15:31:56.583Z,8.65
2022-12-19T15:35:02.841Z,9.20
2022-12-19T15:38:08.941Z,11.38
2022-12-19T15:41:14.709Z,9.73
2022-12-19T15:44:37.290Z,11.12
2022-12-19T15:47:51.472Z,11.53
2022-12-19T15:50:57.735Z,9.58
2022-12-19T15:57:11.931Z,9.65
2022-12-19T16:00:22.666Z,9.13
2022-12-19T16:03:29.959Z,8.78
2022-12-19T16:06:35.736Z,9.40
2022-12-19T16:09:41.810Z,8.68
2022-12-19T16:12:50.718Z,9.40
2022-12-19T16:15:57.453Z,10.38
2022-12-19T16:19:03.323Z,9.30
2022-12-19T16:22:08.504Z,8.73
2022-12-19T16:25:15.420Z,10.58
2022-12-19T16:28:20.787Z,9.28
2022-12-19T16:31:33.336Z,8.60
2022-12-19T16:34:39.787Z,12.60
2022-12-19T16:37:47.189Z,11.30
2022-12-19T16:40:53.433Z,10.38
2022-12-19T16:43:59.559Z,8.43
2022-12-19T16:47:06.072Z,9.40
2022-12-19T16:50:11.160Z,9.28
2022-12-19T16:53:16.733Z,8.70
2022-12-19T16:56:25.703Z,8.78
2022-12-19T16:59:47.787Z,8.88
2022-12-19T17:02:57.976Z,8.40
2022-12-19T17:06:03.264Z,11.73
2022-12-19T17:09:08.511Z,10.55
2022-12-19T17:12:16.523Z,10.50
2022-12-19T17:15:36.667Z,9.28
2022-12-19T17:18:48.913Z,9.38
2022-12-19T17:21:55.387Z,9.38
2022-12-19T17:25:01.748Z,11.30
2022-12-19T17:28:07.048Z,10.55
2022-12-19T17:31:17.635Z,11.88
2022-12-19T17:34:38.523Z,12.40
2022-12-19T17:37:43.501Z,12.85
2022-12-19T17:40:49.216Z,15.20
2022-12-19T17:43:56.818Z,15.88
2022-12-19T17:47:02.463Z,17.60
2022-12-19T17:50:08.215Z,19.90
2022-12-19T17:53:13.166Z,20.82
2022-12-19T17:56:18.873Z,24.32
2022-12-19T17:59:24.700Z,83.03
2022-12-19T18:02:39.480Z,57.23
2022-12-19T18:05:50.375Z,42.95
2022-12-19T18:08:59.620Z,27.87
2022-12-19T18:12:06.593Z,16.87
2022-12-19T18:15:13.288Z,17.62
2022-12-19T18:18:18.603Z,17.05
2022-12-19T18:21:32.407Z,24.77
2022-12-19T18:24:57.168Z,22.07
2022-12-19T18:28:04.828Z,25.08
2022-12-19T18:31:24.670Z,28.62
2022-12-19T18:34:37.258Z,28.55
2022-12-19T18:37:44.188Z,15.88
2022-12-19T18:40:50.962Z,13.93
2022-12-19T18:43:57.757Z,11.73
2022-12-19T18:47:09.340Z,15.53
2022-12-19T18:50:16.037Z,18.80
2022-12-19T18:53:32.771Z,22.55
2022-12-19T18:56:35.066Z,16.55
2022-12-19T18:59:41.456Z,16.35
2022-12-19T19:02:48.752Z,19.20
2022-12-19T19:05:57.626Z,19.35
2022-12-19T19:09:06.082Z,25.30
2022-12-19T19:12:17.582Z,32.13
2022-12-19T19:15:38.687Z,45.98
2022-12-19T19:18:53.505Z,40.08
2022-12-19T19:21:59.347Z,41.65
2022-12-19T19:25:06.802Z,38.28
2022-12-19T19:28:13.594Z,50.98
2022-12-19T19:31:18.610Z,46.30
2022-12-19T19:34:40.330Z,45.43
2022-12-19T19:37:46.700Z,45.58
2022-12-19T19:40:53.436Z,33.55
2022-12-19T19:43:59.736Z,29.12
2022-12-19T19:47:06.368Z,28.20
2022-12-19T19:50:13.091Z,27.58
2022-12-19T19:53:19.954Z,25.75
2022-12-19T19:56:25.780Z,25.02
2022-12-19T19:59:31.216Z,25.52
2022-12-19T20:02:37.229Z,26.02
2022-12-19T20:05:43.892Z,20.35
2022-12-19T20:08:50.074Z,20.17
2022-12-19T20:11:56.799Z,18.87
2022-12-19T20:15:03.505Z,15.60
2022-12-19T20:18:08.446Z,16.05
2022-12-19T20:21:17.441Z,15.32
2022-12-19T20:24:23.128Z,15.53
2022-12-19T20:27:30.357Z,16.35
2022-12-19T20:30:36.897Z,17.35
2022-12-19T20:33:43.852Z,17.40
2022-12-19T20:36:49.537Z,17.35
2022-12-19T20:39:58.828Z,23.13
2022-12-19T20:43:06.112Z,23.22
2022-12-19T20:46:21.632Z,22.60
2022-12-19T20:49:28.535Z,24.80
2022-12-19T20:52:33.636Z,30.72
2022-12-19T20:55:38.924Z,39.05
2022-12-19T20:58:45.789Z,38.83
2022-12-19T21:01:51.922Z,39.30
2022-12-19T21:04:59.496Z,36.53
2022-12-19T21:08:06.323Z,27.13
2022-12-19T21:11:12.251Z,23.65
2022-12-19T21:14:18.004Z,21.85
2022-12-19T21:17:24.435Z,20.52
2022-12-19T21:20:34.576Z,17.85
2022-12-19T21:23:40.642Z,20.15
2022-12-19T21:26:46.437Z,20.12
2022-12-19T21:29:52.652Z,19.75
2022-12-19T21:32:58.704Z,20.08
2022-12-19T21:36:03.812Z,25.92
2022-12-19T21:39:11.376Z,27.35
2022-12-19T21:42:17.905Z,29.67
2022-12-19T21:45:26.420Z,30.32
2022-12-19T21:48:32.553Z,28.75
2022-12-19T21:51:40.465Z,33.33
2022-12-19T21:54:46.751Z,30.90
2022-12-19T21:57:55.819Z,29.05
2022-12-19T22:01:07.672Z,24.27
2022-12-19T22:04:21.729Z,20.00
2022-12-19T22:07:27.731Z,17.75
2022-12-19T22:10:32.784Z,17.35
2022-12-19T22:13:40.395Z,24.35
2022-12-19T22:16:47.674Z,22.27
2022-12-19T22:19:56.243Z,21.97
2022-12-19T22:23:01.872Z,19.27
2022-12-19T22:26:29.736Z,19.30
2022-12-19T22:29:35.239Z,16.67
2022-12-19T22:32:44.187Z,16.42
2022-12-19T22:35:51.020Z,15.75
2022-12-19T22:38:58.195Z,15.90
2022-12-19T22:42:04.506Z,15.90
2022-12-19T22:45:10.997Z,15.28
2022-12-19T22:48:16.102Z,16.40
2022-12-19T22:51:21.869Z,21.10
2022-12-19T22:54:28.608Z,21.20
2022-12-19T22:57:34.554Z,18.95
2022-12-19T23:00:39.751Z,21.33
2022-12-19T23:03:46.293Z,27.93
2022-12-19T23:06:52.483Z,30.65
2022-12-19T23:09:59.838Z,33.70
2022-12-19T23:13:04.697Z,37.83
2022-12-19T23:16:12.465Z,37.73
2022-12-19T23:19:20.738Z,33.75
2022-12-19T23:22:26.995Z,30.60
2022-12-19T23:25:34.672Z,28.92
2022-12-19T23:28:40.335Z,26.42
2022-12-19T23:31:48.035Z,22.25
2022-12-19T23:34:55.130Z,19.30
2022-12-19T23:38:00.847Z,18.15
2022-12-19T23:41:06.315Z,18.77
2022-12-19T23:44:12.558Z,23.92
2022-12-19T23:47:17.639Z,26.00
2022-12-19T23:50:24.716Z,27.95
2022-12-19T23:53:29.917Z,28.95
2022-12-19T23:56:39.771Z,28.35
2022-12-19T23:59:45.709Z,27.05
